Time;durP1;ratioP1;P1;durP2;ratioP2;P2;SDS_P1;SDS_P2;PMS_P1;PMS_P2;Temp;Humidity;BMP_temperature;BMP_pressure;BME280_temperature;BME280_humidity;BME280_pressure;Samples;Min_cycle;Max_cycle;Signal;HPM_P1;HPM_P2
2023/10/21 00:00:27;;;;;;;4.15;1.45;;;15.10;99.90;;;;;;5050193;28;20024;-75
2023/10/21 00:02:52;;;;;;;6.53;2.33;;;15.00;99.90;;;;;;5057934;28;20467;-75
2023/10/21 00:05:18;;;;;;;7.80;1.55;;;15.00;99.90;;;;;;5055489;28;20063;-75
2023/10/21 00:07:44;;;;;;;6.22;1.50;;;15.30;99.90;;;;;;5053846;28;20024;-75
2023/10/21 00:10:10;;;;;;;4.70;1.73;;;15.10;99.90;;;;;;5061020;28;20037;-75
2023/10/21 00:12:36;;;;;;;6.70;1.48;;;15.10;99.90;;;;;;5052678;28;20029;-75
2023/10/21 00:15:04;;;;;;;4.63;1.25;;;15.10;99.90;;;;;;5054419;28;20036;-75
2023/10/21 00:17:30;;;;;;;10.05;1.60;;;15.20;99.90;;;;;;5050913;28;20102;-76
2023/10/21 00:19:56;;;;;;;4.30;1.23;;;15.20;99.90;;;;;;5052815;28;20648;-75
2023/10/21 00:22:22;;;;;;;5.97;1.45;;;15.20;99.90;;;;;;5058000;28;20025;-75
2023/10/21 00:24:47;;;;;;;6.65;1.33;;;15.10;99.90;;;;;;5058065;28;20501;-75
2023/10/21 00:27:13;;;;;;;6.10;1.23;;;15.10;99.90;;;;;;5059783;28;20510;-75
2023/10/21 00:29:39;;;;;;;5.68;1.20;;;15.10;99.90;;;;;;5056558;28;20087;-75
2023/10/21 00:32:05;;;;;;;3.15;1.15;;;15.10;99.90;;;;;;5049480;28;20048;-76
2023/10/21 00:34:31;;;;;;;4.85;1.20;;;15.10;99.90;;;;;;5055809;28;20116;-75
2023/10/21 00:36:57;;;;;;;5.85;1.40;;;15.10;99.90;;;;;;5053323;28;20025;-75
2023/10/21 00:39:23;;;;;;;6.40;1.15;;;15.10;99.90;;;;;;5051203;28;20051;-75
2023/10/21 00:41:49;;;;;;;8.18;2.78;;;15.10;99.90;;;;;;5058395;28;20119;-75
2023/10/21 00:44:14;;;;;;;6.45;2.58;;;15.10;99.90;;;;;;5050699;28;20455;-75
2023/10/21 00:46:43;;;;;;;5.10;1.73;;;15.10;99.90;;;;;;5056690;28;20028;-75
2023/10/21 00:49:09;;;;;;;6.53;1.50;;;15.10;99.90;;;;;;5057710;28;20040;-75
2023/10/21 00:51:39;;;;;;;5.55;1.42;;;15.10;99.90;;;;;;5051301;28;20433;-75
2023/10/21 00:54:06;;;;;;;3.58;1.25;;;15.00;99.90;;;;;;5058002;28;20032;-75
2023/10/21 00:56:32;;;;;;;3.97;1.00;;;15.00;99.90;;;;;;5062760;28;20382;-75
2023/10/21 00:58:58;;;;;;;3.85;1.70;;;14.90;99.90;;;;;;5060028;28;20029;-75
2023/10/21 01:01:24;;;;;;;6.93;1.65;;;14.90;99.90;;;;;;5055012;28;20108;-75
2023/10/21 01:03:50;;;;;;;7.60;1.45;;;14.90;99.90;;;;;;5051607;28;20036;-75
2023/10/21 01:06:15;;;;;;;2.85;1.67;;;14.80;99.90;;;;;;5059255;28;20086;-75
2023/10/21 01:08:45;;;;;;;6.88;1.23;;;15.00;99.90;;;;;;5047570;28;20029;-75
2023/10/21 01:11:11;;;;;;;5.82;1.52;;;15.10;99.90;;;;;;5051402;28;20082;-75
2023/10/21 01:13:37;;;;;;;6.85;1.65;;;15.20;99.90;;;;;;5052002;28;20502;-75
2023/10/21 01:16:03;;;;;;;6.95;2.33;;;15.20;99.90;;;;;;5051554;28;20044;-75
2023/10/21 01:18:35;;;;;;;5.80;1.67;;;15.20;99.90;;;;;;5050922;28;20037;-76
2023/10/21 01:21:02;;;;;;;3.42;1.38;;;15.10;99.90;;;;;;5060869;28;20479;-75
2023/10/21 01:23:33;;;;;;;11.65;2.13;;;15.10;99.90;;;;;;5050503;28;20025;-75
2023/10/21 01:25:59;;;;;;;6.55;1.33;;;15.10;99.90;;;;;;5053654;28;20058;-75
2023/10/21 01:28:26;;;;;;;7.80;1.40;;;15.10;99.90;;;;;;5054269;28;20032;-75
2023/10/21 01:30:52;;;;;;;2.22;0.73;;;15.20;99.90;;;;;;5054795;28;20036;-75
2023/10/21 01:33:18;;;;;;;8.65;1.98;;;15.20;99.90;;;;;;5052958;28;20421;-75
2023/10/21 01:35:43;;;;;;;3.00;1.10;;;15.20;99.90;;;;;;5055019;28;20031;-75
2023/10/21 01:38:10;;;;;;;4.22;1.40;;;15.30;99.90;;;;;;5048226;28;20459;-75
2023/10/21 01:40:36;;;;;;;3.75;1.33;;;15.50;99.90;;;;;;5046408;28;20376;-75
2023/10/21 01:43:01;;;;;;;7.28;1.52;;;15.40;99.90;;;;;;5046685;28;20025;-76
2023/10/21 01:45:28;;;;;;;4.90;1.30;;;15.20;99.90;;;;;;5053844;28;20078;-75
2023/10/21 01:47:54;;;;;;;5.10;1.55;;;15.20;99.90;;;;;;5050931;28;20025;-75
2023/10/21 01:50:19;;;;;;;3.45;1.23;;;15.10;99.90;;;;;;5046734;28;20060;-76
2023/10/21 01:52:45;;;;;;;3.97;1.10;;;15.20;99.90;;;;;;5050516;28;20036;-75
2023/10/21 01:55:11;;;;;;;3.80;1.60;;;15.30;99.90;;;;;;5048036;28;20509;-75
2023/10/21 01:57:37;;;;;;;5.05;1.10;;;15.20;99.90;;;;;;5050528;28;20020;-75
2023/10/21 02:00:05;;;;;;;7.07;1.40;;;15.10;99.90;;;;;;5051494;28;20025;-75
2023/10/21 02:02:31;;;;;;;4.55;1.13;;;15.20;99.90;;;;;;5047024;28;20060;-75
2023/10/21 02:04:57;;;;;;;4.03;1.23;;;15.10;99.90;;;;;;5057378;28;20060;-75
2023/10/21 02:07:22;;;;;;;3.42;1.15;;;15.10;99.90;;;;;;5051499;28;20123;-75
2023/10/21 02:09:48;;;;;;;2.78;1.20;;;15.10;99.90;;;;;;5057514;28;20044;-75
2023/10/21 02:12:15;;;;;;;6.78;1.15;;;15.00;99.90;;;;;;5049099;28;20071;-75
2023/10/21 02:14:40;;;;;;;2.45;1.15;;;15.00;99.90;;;;;;5048650;28;20044;-76
2023/10/21 02:17:06;;;;;;;5.07;1.98;;;15.00;99.90;;;;;;5051270;28;20100;-75
2023/10/21 02:19:32;;;;;;;7.95;1.40;;;15.00;99.90;;;;;;5052555;28;20533;-75
2023/10/21 02:21:58;;;;;;;4.20;1.10;;;15.00;99.90;;;;;;5055572;28;20021;-75
2023/10/21 02:24:24;;;;;;;3.50;1.10;;;15.00;99.90;;;;;;5049428;28;20024;-75
2023/10/21 02:26:49;;;;;;;4.95;1.20;;;14.80;99.90;;;;;;5053106;28;20108;-75
2023/10/21 02:29:16;;;;;;;5.18;1.10;;;14.70;99.90;;;;;;5054604;28;20029;-75
2023/10/21 02:31:41;;;;;;;5.85;0.93;;;14.60;99.90;;;;;;5059341;28;20032;-75
2023/10/21 02:34:07;;;;;;;4.18;1.42;;;14.60;99.90;;;;;;5051058;28;20055;-75
2023/10/21 02:36:34;;;;;;;7.78;1.45;;;14.50;99.90;;;;;;5051640;28;20395;-75
2023/10/21 02:39:00;;;;;;;5.53;1.13;;;14.60;99.90;;;;;;5060243;28;20036;-75
2023/10/21 02:41:26;;;;;;;3.83;1.10;;;14.60;99.90;;;;;;5053515;28;20032;-75
2023/10/21 02:43:52;;;;;;;5.55;1.30;;;14.60;99.90;;;;;;5048480;28;20450;-75
2023/10/21 02:46:19;;;;;;;4.38;1.50;;;14.80;99.90;;;;;;5053806;28;20033;-75
2023/10/21 02:48:45;;;;;;;7.43;1.30;;;14.90;99.90;;;;;;5048230;28;20033;-75
2023/10/21 02:51:14;;;;;;;6.35;1.83;;;15.00;99.90;;;;;;5053404;28;20111;-75
2023/10/21 02:53:41;;;;;;;4.90;1.30;;;15.00;99.90;;;;;;5058678;28;20044;-75
2023/10/21 02:56:07;;;;;;;5.95;1.58;;;14.90;99.90;;;;;;5055373;28;20094;-75
2023/10/21 02:58:36;;;;;;;3.70;1.60;;;14.80;99.90;;;;;;5051843;28;20056;-75
2023/10/21 03:01:14;;;;;;;2.03;0.80;;;14.60;99.90;;;;;;5054688;28;20116;-75
2023/10/21 03:03:40;;;;;;;5.30;1.23;;;14.60;99.90;;;;;;5048752;28;20072;-75
2023/10/21 03:06:06;;;;;;;5.70;1.73;;;14.50;99.90;;;;;;5057709;28;20465;-75
2023/10/21 03:08:31;;;;;;;4.43;1.38;;;14.50;99.90;;;;;;5050176;28;20024;-75
2023/10/21 03:10:57;;;;;;;6.40;1.95;;;14.60;99.90;;;;;;5047033;28;20111;-75
2023/10/21 03:13:23;;;;;;;5.72;1.20;;;14.70;99.90;;;;;;5048095;28;20020;-75
2023/10/21 03:15:49;;;;;;;4.95;1.48;;;14.80;99.90;;;;;;5045127;28;20363;-75
2023/10/21 03:18:15;;;;;;;3.83;1.00;;;14.80;99.90;;;;;;5051723;28;20033;-75
2023/10/21 03:20:41;;;;;;;2.40;0.80;;;14.80;99.90;;;;;;5045410;28;20553;-75
2023/10/21 03:23:06;;;;;;;2.65;1.10;;;14.80;99.90;;;;;;5048033;28;20111;-75
2023/10/21 03:25:33;;;;;;;4.47;1.45;;;14.70;99.90;;;;;;5051109;28;20063;-75
2023/10/21 03:28:00;;;;;;;4.90;1.40;;;14.70;99.90;;;;;;5048252;28;20086;-75
2023/10/21 03:30:25;;;;;;;6.13;1.25;;;14.70;99.90;;;;;;5048815;28;20040;-75
2023/10/21 03:32:51;;;;;;;7.47;1.48;;;14.70;99.90;;;;;;5047408;28;20041;-76
2023/10/21 03:35:17;;;;;;;5.45;0.98;;;14.70;99.90;;;;;;5045433;28;20040;-75
2023/10/21 03:37:42;;;;;;;2.53;0.90;;;14.70;99.90;;;;;;5052282;28;20039;-75
2023/10/21 03:40:10;;;;;;;4.10;1.15;;;14.70;99.90;;;;;;5052897;28;21193;-75
2023/10/21 03:42:37;;;;;;;6.70;1.60;;;14.70;99.90;;;;;;5049918;28;20050;-75
2023/10/21 03:45:04;;;;;;;3.40;1.00;;;14.60;99.90;;;;;;5048222;28;20033;-76
2023/10/21 03:47:30;;;;;;;6.55;1.73;;;14.70;99.90;;;;;;5048232;28;20148;-76
2023/10/21 03:49:57;;;;;;;3.25;1.23;;;14.80;99.90;;;;;;5053788;28;20025;-76
2023/10/21 03:52:22;;;;;;;5.80;1.20;;;14.80;99.90;;;;;;5046869;28;20033;-76
2023/10/21 03:54:48;;;;;;;4.22;0.88;;;14.80;99.90;;;;;;5047398;28;20536;-76
2023/10/21 03:57:14;;;;;;;6.00;1.23;;;14.80;99.90;;;;;;5049272;28;20520;-76
2023/10/21 03:59:39;;;;;;;3.85;1.20;;;14.80;99.90;;;;;;5045888;28;20558;-76
2023/10/21 04:02:05;;;;;;;2.30;1.00;;;14.70;99.90;;;;;;5045212;28;20021;-76
2023/10/21 04:04:31;;;;;;;2.75;1.13;;;14.60;99.90;;;;;;5049664;28;20025;-76
2023/10/21 04:06:57;;;;;;;4.00;1.10;;;14.60;99.90;;;;;;5049429;28;20021;-76
2023/10/21 04:09:23;;;;;;;5.10;1.23;;;14.50;99.90;;;;;;5042087;28;20113;-76
2023/10/21 04:11:49;;;;;;;5.13;1.77;;;14.40;99.90;;;;;;5046214;28;20032;-76
2023/10/21 04:14:15;;;;;;;2.88;0.95;;;14.50;99.90;;;;;;5045168;28;20024;-76
2023/10/21 04:16:44;;;;;;;4.07;1.33;;;14.50;99.90;;;;;;5044358;28;20082;-76
2023/10/21 04:19:10;;;;;;;5.97;0.93;;;14.60;99.90;;;;;;5047740;28;20035;-76
2023/10/21 04:21:36;;;;;;;5.70;1.45;;;14.70;99.90;;;;;;5049107;28;20032;-76
2023/10/21 04:24:03;;;;;;;5.25;1.25;;;14.60;99.90;;;;;;5053397;28;20131;-76
2023/10/21 04:26:29;;;;;;;4.55;1.35;;;14.60;99.90;;;;;;5047091;28;20037;-76
2023/10/21 04:28:55;;;;;;;3.40;1.27;;;14.60;99.90;;;;;;5045522;28;20513;-75
2023/10/21 04:31:21;;;;;;;6.00;1.15;;;14.70;99.90;;;;;;5048552;28;20032;-76
2023/10/21 04:33:47;;;;;;;5.15;1.33;;;14.60;99.90;;;;;;5047974;28;20404;-76
2023/10/21 04:36:17;;;;;;;2.65;1.00;;;14.60;99.90;;;;;;5049045;28;20041;-76
2023/10/21 04:38:44;;;;;;;4.03;1.23;;;14.50;99.90;;;;;;5049721;28;20050;-76
2023/10/21 04:41:10;;;;;;;3.15;1.42;;;14.50;99.90;;;;;;5049280;28;20044;-76
2023/10/21 04:43:36;;;;;;;7.25;1.48;;;14.70;99.90;;;;;;5050008;28;20036;-76
2023/10/21 04:46:02;;;;;;;5.18;1.60;;;14.80;99.90;;;;;;5045317;28;20193;-76
2023/10/21 04:48:28;;;;;;;6.43;1.77;;;14.90;99.90;;;;;;5048002;28;20028;-76
2023/10/21 04:50:54;;;;;;;7.88;1.20;;;15.00;99.90;;;;;;5046109;28;20102;-76
2023/10/21 04:53:19;;;;;;;5.32;1.63;;;14.90;99.90;;;;;;5050683;28;20458;-75
2023/10/21 04:55:45;;;;;;;4.22;1.10;;;14.90;99.90;;;;;;5046497;28;20037;-75
2023/10/21 04:58:10;;;;;;;3.20;1.08;;;14.90;99.90;;;;;;5052759;28;20028;-76
2023/10/21 05:00:36;;;;;;;6.55;1.65;;;14.80;99.90;;;;;;5048437;28;20025;-76
2023/10/21 05:03:02;;;;;;;9.00;2.00;;;14.80;99.90;;;;;;5048728;28;20044;-76
2023/10/21 05:05:28;;;;;;;4.32;1.10;;;14.80;99.90;;;;;;5043782;28;20403;-76
2023/10/21 05:07:53;;;;;;;7.90;1.52;;;14.70;99.90;;;;;;5048301;28;20020;-76
2023/10/21 05:10:19;;;;;;;4.68;1.40;;;14.70;99.90;;;;;;5053642;28;20032;-76
2023/10/21 05:12:45;;;;;;;5.60;1.45;;;14.70;99.90;;;;;;5053547;28;20028;-75
2023/10/21 05:15:11;;;;;;;3.67;1.15;;;14.60;99.90;;;;;;5048248;28;20465;-76
2023/10/21 05:17:37;;;;;;;7.20;1.45;;;14.60;99.90;;;;;;5056631;28;20063;-76
2023/10/21 05:20:03;;;;;;;7.53;1.80;;;14.50;99.90;;;;;;5047482;28;20040;-76
2023/10/21 05:22:29;;;;;;;4.28;1.20;;;14.50;99.90;;;;;;5054529;28;20159;-76
2023/10/21 05:24:55;;;;;;;5.28;1.25;;;14.50;99.90;;;;;;5049530;28;20088;-75
2023/10/21 05:27:21;;;;;;;8.38;1.95;;;14.50;99.90;;;;;;5047329;28;20021;-76
2023/10/21 05:29:47;;;;;;;4.50;1.52;;;14.60;99.90;;;;;;5052473;28;21210;-76
2023/10/21 05:32:14;;;;;;;3.47;1.95;;;14.50;99.90;;;;;;5052498;28;20051;-76
2023/10/21 05:34:40;;;;;;;5.53;1.67;;;14.50;99.90;;;;;;5044712;28;20045;-76
2023/10/21 05:37:06;;;;;;;8.75;2.40;;;14.50;99.90;;;;;;5047708;28;20036;-76
2023/10/21 05:39:32;;;;;;;4.90;1.60;;;14.50;99.90;;;;;;5047857;28;20032;-76
2023/10/21 05:41:58;;;;;;;5.82;2.10;;;14.50;99.90;;;;;;5045746;28;20073;-76
2023/10/21 05:44:24;;;;;;;5.05;1.83;;;14.50;99.90;;;;;;5044396;28;20063;-75
2023/10/21 05:46:49;;;;;;;6.88;2.00;;;14.50;99.90;;;;;;5044268;28;20047;-75
2023/10/21 05:49:15;;;;;;;8.60;1.73;;;14.50;99.90;;;;;;5046018;28;20619;-76
2023/10/21 05:51:41;;;;;;;7.40;1.92;;;14.40;99.90;;;;;;5044374;28;20067;-76
2023/10/21 05:54:07;;;;;;;6.72;2.05;;;14.40;99.90;;;;;;5055126;28;20029;-76
2023/10/21 05:56:32;;;;;;;5.10;1.70;;;14.40;99.90;;;;;;5045260;28;20037;-76
2023/10/21 05:58:58;;;;;;;4.63;1.70;;;14.30;99.90;;;;;;5047507;28;20415;-76
2023/10/21 06:01:24;;;;;;;4.47;1.70;;;14.40;99.90;;;;;;5048521;28;20551;-76
2023/10/21 06:03:49;;;;;;;5.88;1.20;;;14.40;99.90;;;;;;5040712;28;23767;-76
2023/10/21 06:06:17;;;;;;;4.72;1.60;;;14.30;99.90;;;;;;5042250;28;20024;-76
2023/10/21 06:08:42;;;;;;;7.80;1.92;;;14.30;99.90;;;;;;5044548;28;20029;-75
2023/10/21 06:11:08;;;;;;;5.57;1.77;;;14.30;99.90;;;;;;5043719;28;20938;-75
2023/10/21 06:13:34;;;;;;;3.35;1.50;;;14.40;99.90;;;;;;5045117;28;20457;-75
2023/10/21 06:16:00;;;;;;;7.53;2.17;;;14.30;99.90;;;;;;5042063;28;20063;-75
2023/10/21 06:18:26;;;;;;;6.97;2.22;;;14.30;99.90;;;;;;5049920;28;20449;-75
2023/10/21 06:20:52;;;;;;;6.05;1.60;;;14.30;99.90;;;;;;5056583;28;20064;-76
2023/10/21 06:23:17;;;;;;;4.10;1.85;;;14.40;99.90;;;;;;5047868;28;20368;-75
2023/10/21 06:25:43;;;;;;;4.97;1.50;;;14.40;99.90;;;;;;5049426;28;20398;-75
2023/10/21 06:28:11;;;;;;;6.38;1.85;;;14.40;99.90;;;;;;5050314;28;20044;-75
2023/10/21 06:30:38;;;;;;;5.10;1.98;;;14.50;99.90;;;;;;5049639;28;20685;-75
2023/10/21 06:33:03;;;;;;;6.05;1.73;;;14.50;99.90;;;;;;5051801;28;20442;-75
2023/10/21 06:35:29;;;;;;;6.45;1.73;;;14.60;99.90;;;;;;5056899;28;20040;-75
2023/10/21 06:37:55;;;;;;;5.13;1.88;;;14.60;99.90;;;;;;5053247;28;20103;-75
2023/10/21 06:40:20;;;;;;;6.57;1.92;;;14.60;99.90;;;;;;5054671;28;20417;-75
2023/10/21 06:42:46;;;;;;;5.47;1.88;;;14.60;99.90;;;;;;5055920;28;20430;-73
2023/10/21 06:45:12;;;;;;;6.22;2.30;;;14.60;99.90;;;;;;5048900;28;20024;-73
2023/10/21 06:47:37;;;;;;;5.50;2.05;;;14.60;99.90;;;;;;5056615;28;20103;-79
2023/10/21 06:50:04;;;;;;;4.20;1.90;;;14.70;99.90;;;;;;5056711;28;20032;-75
2023/10/21 06:52:31;;;;;;;4.18;1.65;;;14.70;99.90;;;;;;5047044;28;20031;-75
2023/10/21 06:54:57;;;;;;;6.15;2.22;;;14.70;99.90;;;;;;5053080;28;20036;-78
2023/10/21 06:57:23;;;;;;;4.10;1.80;;;14.70;99.90;;;;;;5050228;28;20485;-79
2023/10/21 06:59:52;;;;;;;4.88;1.98;;;14.60;99.90;;;;;;5047612;28;20402;-80
2023/10/21 07:02:17;;;;;;;4.22;1.70;;;14.60;99.90;;;;;;5051132;28;20056;-79
2023/10/21 07:04:43;;;;;;;3.60;1.85;;;14.70;99.90;;;;;;5050343;28;20063;-79
2023/10/21 07:07:12;;;;;;;6.75;2.17;;;14.70;99.90;;;;;;5048211;28;20040;-79
2023/10/21 07:09:38;;;;;;;6.18;2.15;;;14.80;99.90;;;;;;5051523;28;20099;-78
2023/10/21 07:12:04;;;;;;;5.20;1.90;;;14.80;99.90;;;;;;5047232;28;20925;-79
2023/10/21 07:14:30;;;;;;;4.47;1.83;;;14.90;99.90;;;;;;5055581;28;20040;-79
2023/10/21 07:16:58;;;;;;;3.75;2.03;;;14.90;99.90;;;;;;5051079;28;20101;-79
2023/10/21 07:19:23;;;;;;;5.03;1.80;;;14.90;99.90;;;;;;5048253;28;20025;-80
2023/10/21 07:21:49;;;;;;;3.83;2.05;;;15.00;99.90;;;;;;5053456;28;20603;-79
2023/10/21 07:24:15;;;;;;;7.03;2.38;;;15.00;99.90;;;;;;5044240;28;20032;-79
2023/10/21 07:26:41;;;;;;;5.63;1.60;;;15.00;99.90;;;;;;5052180;28;20027;-80
2023/10/21 07:29:09;;;;;;;5.13;2.03;;;15.00;99.90;;;;;;5053179;28;20064;-79
2023/10/21 07:31:35;;;;;;;5.57;1.98;;;15.00;99.90;;;;;;5048762;28;20087;-79
2023/10/21 07:34:01;;;;;;;7.45;2.20;;;15.10;99.90;;;;;;5043123;28;20151;-79
2023/10/21 07:36:27;;;;;;;8.50;2.10;;;15.10;99.90;;;;;;5047704;28;20044;-79
2023/10/21 07:38:53;;;;;;;4.00;2.00;;;15.10;99.90;;;;;;5046548;28;20032;-79
2023/10/21 07:41:19;;;;;;;7.00;1.90;;;15.00;99.90;;;;;;5054789;28;20086;-79
2023/10/21 07:43:45;;;;;;;7.15;2.72;;;15.10;99.90;;;;;;5046395;28;20028;-79
2023/10/21 07:46:12;;;;;;;7.07;2.00;;;15.10;99.90;;;;;;5049810;28;20063;-79
2023/10/21 07:48:38;;;;;;;4.57;2.20;;;15.10;99.90;;;;;;5058550;28;20068;-79
2023/10/21 07:51:03;;;;;;;2.83;1.73;;;15.10;99.90;;;;;;5062245;28;21002;-79
2023/10/21 07:53:29;;;;;;;6.75;2.35;;;15.10;99.90;;;;;;5066028;28;20032;-79
2023/10/21 07:55:55;;;;;;;8.05;3.67;;;15.10;99.90;;;;;;5066427;28;20055;-79
2023/10/21 07:58:23;;;;;;;16.08;5.43;;;15.00;99.90;;;;;;5065902;28;20108;-79
2023/10/21 08:00:50;;;;;;;7.40;3.75;;;15.10;99.90;;;;;;5062702;28;20028;-79
2023/10/21 08:03:17;;;;;;;8.55;3.22;;;15.10;99.90;;;;;;5065107;28;20400;-78
2023/10/21 08:05:43;;;;;;;6.90;2.63;;;15.10;99.90;;;;;;5061013;28;20029;-80
2023/10/21 08:08:10;;;;;;;8.30;2.78;;;15.10;99.90;;;;;;5063440;28;20516;-78
2023/10/21 08:10:36;;;;;;;8.93;2.53;;;15.20;99.90;;;;;;5058269;28;20014;-78
2023/10/21 08:13:02;;;;;;;7.55;2.88;;;15.40;99.90;;;;;;5054683;28;20021;-81
2023/10/21 08:15:29;;;;;;;6.00;2.70;;;15.40;99.90;;;;;;5063271;28;20036;-80
2023/10/21 08:17:55;;;;;;;7.28;2.83;;;15.40;99.90;;;;;;5057317;28;20081;-80
2023/10/21 08:20:21;;;;;;;6.22;3.13;;;15.40;99.90;;;;;;5062382;28;20103;-80
2023/10/21 08:22:47;;;;;;;7.03;2.80;;;15.50;99.90;;;;;;5066567;28;20064;-80
2023/10/21 08:25:13;;;;;;;10.68;2.85;;;15.50;99.90;;;;;;5057553;28;20036;-76
2023/10/21 08:27:39;;;;;;;8.50;3.17;;;15.60;99.90;;;;;;5050520;28;20025;-80
2023/10/21 08:30:06;;;;;;;6.75;3.10;;;15.70;99.90;;;;;;5075506;28;21625;-79
2023/10/21 08:32:32;;;;;;;10.07;3.33;;;15.90;99.90;;;;;;5072398;28;20053;-82
2023/10/21 08:34:57;;;;;;;5.55;2.53;;;15.90;99.90;;;;;;5077672;28;20037;-81
2023/10/21 08:37:23;;;;;;;9.80;2.72;;;15.90;99.90;;;;;;5071363;28;20024;-78
2023/10/21 08:39:49;;;;;;;9.57;2.70;;;15.80;99.90;;;;;;5055459;28;20060;-77
2023/10/21 08:42:18;;;;;;;8.50;2.67;;;15.80;99.90;;;;;;5077590;28;20479;-76
2023/10/21 08:44:48;;;;;;;5.55;1.90;;;15.90;99.90;;;;;;5076004;28;20021;-76
2023/10/21 08:47:16;;;;;;;5.03;1.73;;;15.80;99.90;;;;;;5051169;28;20033;-76
2023/10/21 08:49:45;;;;;;;9.18;2.25;;;15.70;99.90;;;;;;5057936;28;20035;-78
2023/10/21 08:52:13;;;;;;;7.78;2.10;;;15.60;99.90;;;;;;5060988;28;20024;-79
2023/10/21 08:54:42;;;;;;;4.75;2.30;;;15.70;99.90;;;;;;5060867;28;20528;-77
2023/10/21 08:57:07;;;;;;;6.63;2.50;;;15.90;99.90;;;;;;5057586;28;20116;-77
2023/10/21 08:59:33;;;;;;;7.20;2.63;;;15.80;99.90;;;;;;5060353;28;20111;-76
2023/10/21 09:01:59;;;;;;;5.80;2.50;;;15.70;99.90;;;;;;5066276;28;20028;-77
2023/10/21 09:04:25;;;;;;;6.03;2.40;;;15.70;99.90;;;;;;5054465;28;20021;-75
2023/10/21 09:06:55;;;;;;;9.80;2.88;;;15.70;99.90;;;;;;5061805;28;20108;-79
2023/10/21 09:09:26;;;;;;;5.70;2.65;;;15.80;99.90;;;;;;5065702;28;20086;-78
2023/10/21 09:12:10;;;;;;;6.53;2.70;;;15.80;99.90;;;;;;5066750;28;20418;-80
2023/10/21 09:14:56;;;;;;;3.75;1.80;;;15.80;99.90;;;;;;5058817;28;20036;-80
2023/10/21 09:17:45;;;;;;;6.00;2.30;;;15.80;99.90;;;;;;5067636;28;20029;-78
2023/10/21 09:20:16;;;;;;;11.13;2.80;;;15.90;99.90;;;;;;5048806;28;20032;-77
2023/10/21 09:22:44;;;;;;;7.55;2.80;;;16.00;99.90;;;;;;5053065;28;20033;-77
2023/10/21 09:25:20;;;;;;;6.82;3.08;;;16.10;99.90;;;;;;5047535;28;20068;-75
2023/10/21 09:27:49;;;;;;;7.38;2.70;;;16.10;99.90;;;;;;5048353;28;20112;-78
2023/10/21 09:30:17;;;;;;;5.72;2.72;;;16.10;99.90;;;;;;5064949;28;20024;-77
2023/10/21 09:32:44;;;;;;;5.85;2.30;;;16.20;99.90;;;;;;5066795;28;20060;-76
2023/10/21 09:35:16;;;;;;;5.45;2.65;;;16.30;99.90;;;;;;5076049;28;20036;-78
2023/10/21 09:37:43;;;;;;;6.85;2.55;;;16.40;99.90;;;;;;5055773;28;20036;-78
2023/10/21 09:40:09;;;;;;;7.28;2.90;;;16.40;99.90;;;;;;5057432;28;20040;-79
2023/10/21 09:42:42;;;;;;;6.25;2.50;;;16.20;99.90;;;;;;5057866;28;20062;-79
2023/10/21 09:45:12;;;;;;;7.18;3.00;;;16.20;99.90;;;;;;5059102;28;20024;-79
2023/10/21 09:47:42;;;;;;;9.38;2.88;;;16.00;99.90;;;;;;5067355;28;20039;-79
2023/10/21 09:50:13;;;;;;;5.45;3.05;;;16.00;99.90;;;;;;5059896;28;20458;-77
2023/10/21 09:52:42;;;;;;;7.65;2.72;;;16.10;99.90;;;;;;5050895;28;20085;-77
2023/10/21 09:55:10;;;;;;;7.13;3.05;;;16.10;99.90;;;;;;5065913;28;20036;-77
2023/10/21 09:57:40;;;;;;;4.95;2.55;;;16.00;99.90;;;;;;5054708;28;20043;-77
2023/10/21 10:00:08;;;;;;;8.95;3.72;;;16.00;99.90;;;;;;5055321;28;20028;-77
2023/10/21 10:02:36;;;;;;;7.40;3.45;;;16.00;99.90;;;;;;5054282;28;20551;-77
2023/10/21 10:05:07;;;;;;;5.47;3.08;;;16.00;99.90;;;;;;5055791;28;20024;-78
2023/10/21 10:07:35;;;;;;;5.72;2.97;;;16.10;99.90;;;;;;5056809;28;20031;-78
2023/10/21 10:10:04;;;;;;;8.48;3.80;;;16.10;99.90;;;;;;5066886;28;20017;-78
2023/10/21 10:12:52;;;;;;;9.57;3.75;;;16.20;99.90;;;;;;5062761;28;20387;-78
2023/10/21 10:15:35;;;;;;;6.07;3.33;;;16.10;99.90;;;;;;5062850;28;20036;-78
2023/10/21 10:18:08;;;;;;;8.68;3.10;;;16.10;99.90;;;;;;5061841;28;20033;-78
2023/10/21 10:20:43;;;;;;;7.25;3.08;;;16.00;99.90;;;;;;5063509;28;20485;-78
2023/10/21 10:23:09;;;;;;;8.55;3.55;;;16.00;99.90;;;;;;5065341;28;20631;-77
2023/10/21 10:25:36;;;;;;;6.25;3.08;;;16.10;99.90;;;;;;5050297;28;20064;-78
2023/10/21 10:28:28;;;;;;;6.63;3.47;;;16.00;99.90;;;;;;5056539;28;20020;-76
2023/10/21 10:30:56;;;;;;;8.18;2.97;;;16.20;99.90;;;;;;5053892;28;20441;-77
2023/10/21 10:33:31;;;;;;;6.47;3.08;;;16.40;99.90;;;;;;5057181;28;20037;-77
2023/10/21 10:35:57;;;;;;;7.05;3.70;;;16.50;99.90;;;;;;5056006;28;20036;-77
2023/10/21 10:38:27;;;;;;;5.78;3.22;;;16.60;99.90;;;;;;5056916;28;20032;-77
2023/10/21 10:41:06;;;;;;;7.20;3.95;;;16.70;99.90;;;;;;5057791;28;20596;-76
2023/10/21 10:43:32;;;;;;;9.07;3.30;;;16.70;99.90;;;;;;5063607;28;20020;-77
2023/10/21 10:46:00;;;;;;;5.95;3.50;;;16.80;99.90;;;;;;5043487;28;20060;-76
2023/10/21 10:48:26;;;;;;;8.85;4.00;;;16.70;99.90;;;;;;5042269;28;20023;-76
2023/10/21 10:50:58;;;;;;;8.13;3.85;;;16.80;99.90;;;;;;5047584;28;20513;-76
2023/10/21 10:53:23;;;;;;;8.90;3.47;;;16.80;99.90;;;;;;5042184;28;20028;-77
2023/10/21 10:55:54;;;;;;;8.57;3.78;;;16.70;99.90;;;;;;5047108;28;20029;-77
2023/10/21 10:58:20;;;;;;;7.78;3.72;;;16.50;99.90;;;;;;5041164;28;20031;-77
2023/10/21 11:00:47;;;;;;;8.18;3.83;;;16.60;99.90;;;;;;5043838;28;20036;-77
2023/10/21 11:03:27;;;;;;;8.77;3.90;;;16.70;99.90;;;;;;5048295;28;20032;-77
2023/10/21 11:05:55;;;;;;;8.25;4.45;;;16.80;99.90;;;;;;5048766;28;20025;-77
2023/10/21 11:08:21;;;;;;;6.82;3.78;;;16.60;99.90;;;;;;5049422;28;20016;-75
2023/10/21 11:10:47;;;;;;;7.03;4.03;;;16.60;99.90;;;;;;5046407;28;20104;-75
2023/10/21 11:13:13;;;;;;;7.35;3.75;;;16.70;99.90;;;;;;5046064;28;20477;-75
2023/10/21 11:15:44;;;;;;;6.82;3.25;;;16.70;99.90;;;;;;5050732;28;20044;-75
2023/10/21 11:18:11;;;;;;;7.20;3.90;;;16.60;99.90;;;;;;5049707;28;20088;-77
2023/10/21 11:20:49;;;;;;;9.18;3.95;;;16.70;99.90;;;;;;5050900;28;20032;-75
2023/10/21 11:23:18;;;;;;;7.30;4.43;;;16.80;99.90;;;;;;5044251;28;20128;-73
2023/10/21 11:25:47;;;;;;;11.15;4.20;;;16.80;99.90;;;;;;5047922;28;20082;-73
2023/10/21 11:28:14;;;;;;;7.88;3.40;;;17.00;99.90;;;;;;5043360;28;20036;-73
2023/10/21 11:30:44;;;;;;;10.18;4.10;;;17.00;99.90;;;;;;5046431;28;20021;-74
2023/10/21 11:33:10;;;;;;;7.85;3.60;;;17.20;99.90;;;;;;5051372;28;20698;-74
2023/10/21 11:35:40;;;;;;;6.53;3.28;;;17.40;99.90;;;;;;5056853;28;20040;-74
2023/10/21 11:38:07;;;;;;;7.93;3.88;;;17.80;99.90;;;;;;5052417;28;20037;-74
2023/10/21 11:40:36;;;;;;;9.75;3.85;;;17.70;99.90;;;;;;5045487;28;20548;-73
2023/10/21 11:43:14;;;;;;;9.82;3.47;;;17.90;99.90;;;;;;5042070;28;20082;-74
2023/10/21 11:45:43;;;;;;;6.95;3.58;;;17.90;99.90;;;;;;5043399;28;20021;-75
2023/10/21 11:48:09;;;;;;;7.28;3.95;;;17.90;99.90;;;;;;5044183;28;20040;-73
2023/10/21 11:50:45;;;;;;;6.05;3.83;;;17.90;99.90;;;;;;5048961;28;20070;-73
2023/10/21 11:53:12;;;;;;;11.45;3.80;;;17.80;99.90;;;;;;5051581;28;20478;-73
2023/10/21 12:04:47;;;;;;;6.07;4.38;;;17.80;99.90;;;;;;5043819;28;20110;-73
2023/10/21 12:10:39;;;;;;;7.78;3.53;;;17.50;99.90;;;;;;5050227;28;20045;-74
2023/10/21 12:18:13;;;;;;;6.40;3.78;;;17.80;99.90;;;;;;5052959;28;20062;-74
2023/10/21 12:41:57;;;;;;;7.75;4.00;;;18.40;99.90;;;;;;5045474;28;20147;-73
2023/10/21 12:44:24;;;;;;;6.85;3.75;;;18.70;99.90;;;;;;5048618;28;20117;-74
2023/10/21 12:46:56;;;;;;;7.20;3.28;;;18.80;99.90;;;;;;5045619;28;20053;-74
2023/10/21 12:49:24;;;;;;;9.20;3.38;;;18.50;99.90;;;;;;5049235;28;20459;-74
2023/10/21 12:51:51;;;;;;;6.13;2.72;;;18.30;99.90;;;;;;5057313;28;20090;-74
2023/10/21 12:54:17;;;;;;;5.60;3.55;;;18.20;99.90;;;;;;5048346;28;20040;-74
2023/10/21 12:56:42;;;;;;;5.60;3.20;;;18.00;99.90;;;;;;5065968;28;20036;-74
2023/10/21 12:59:08;;;;;;;6.68;2.95;;;18.10;99.90;;;;;;5058577;28;20467;-74
2023/10/21 13:01:34;;;;;;;6.80;2.85;;;18.10;99.90;;;;;;5048622;28;20780;-75
2023/10/21 13:04:01;;;;;;;4.30;2.42;;;18.10;99.90;;;;;;5051024;28;20612;-74
2023/10/21 13:06:26;;;;;;;8.73;2.90;;;18.30;99.90;;;;;;5049401;28;20341;-74
2023/10/21 13:08:52;;;;;;;9.65;5.55;;;18.40;99.90;;;;;;5045698;28;20067;-73
2023/10/21 13:11:18;;;;;;;6.53;3.05;;;18.70;99.90;;;;;;5043370;28;20037;-74
2023/10/21 13:13:45;;;;;;;8.13;4.68;;;18.90;99.90;;;;;;5046270;28;20078;-74
2023/10/21 13:16:11;;;;;;;9.82;4.70;;;18.90;99.90;;;;;;5047155;28;20064;-74
2023/10/21 13:18:36;;;;;;;6.78;3.55;;;19.00;99.90;;;;;;5060686;28;20040;-74
2023/10/21 13:21:06;;;;;;;8.35;3.90;;;19.00;99.90;;;;;;5042199;28;20120;-74
2023/10/21 13:23:34;;;;;;;7.70;3.88;;;19.10;99.90;;;;;;5045321;28;20033;-74